createdAt,value
2023-01-15T00:02:08.572Z,100089.88
2023-01-15T00:04:38.113Z,100094.66
2023-01-15T00:07:06.476Z,100102.09
2023-01-15T00:09:34.674Z,100100.19
2023-01-15T00:12:02.857Z,100105.19
2023-01-15T00:14:31.113Z,100100.63
2023-01-15T00:16:59.444Z,100105.38
2023-01-15T00:19:27.693Z,100104.13
2023-01-15T00:21:58.366Z,100099.97
2023-01-15T00:24:43.779Z,100094.44
2023-01-15T00:27:29.955Z,100101.72
2023-01-15T00:30:16.858Z,100103.78
2023-01-15T00:32:46.101Z,100095.53
2023-01-15T00:35:15.959Z,100091.88
2023-01-15T00:37:45.794Z,100096.09
2023-01-15T00:40:15.365Z,100089.38
2023-01-15T00:42:43.543Z,100103.06
2023-01-15T00:45:18.925Z,100106.00
2023-01-15T00:47:50.600Z,100091.88
2023-01-15T00:50:18.920Z,100100.34
2023-01-15T00:52:48.606Z,100088.00
2023-01-15T00:55:16.774Z,100088.59
2023-01-15T00:57:44.957Z,100102.56
2023-01-15T01:00:14.117Z,100088.44
2023-01-15T01:02:42.334Z,100094.34
2023-01-15T01:05:11.002Z,100089.69
2023-01-15T01:07:39.259Z,100093.31
2023-01-15T01:10:10.259Z,100086.25
2023-01-15T01:12:38.724Z,100088.25
2023-01-15T01:15:09.915Z,100089.09
2023-01-15T01:17:38.422Z,100089.09
2023-01-15T01:20:08.288Z,100091.50
2023-01-15T01:22:37.072Z,100087.06
2023-01-15T01:25:05.570Z,100089.19
2023-01-15T01:27:35.086Z,100088.25
2023-01-15T01:30:03.452Z,100086.28
2023-01-15T01:32:31.586Z,100083.22
2023-01-15T01:34:59.811Z,100087.63
2023-01-15T01:37:27.983Z,100089.88
2023-01-15T01:39:57.813Z,100081.28
2023-01-15T01:42:26.123Z,100085.28
2023-01-15T01:45:03.877Z,100084.69
2023-01-15T01:47:35.019Z,100076.63
2023-01-15T01:50:09.109Z,100085.28
2023-01-15T01:52:43.009Z,100084.38
2023-01-15T01:55:13.509Z,100085.19
2023-01-15T01:57:42.432Z,100079.69
2023-01-15T02:00:15.384Z,100073.94
2023-01-15T02:02:47.365Z,100072.50
2023-01-15T02:05:23.404Z,100071.03
2023-01-15T02:07:51.561Z,100081.28
2023-01-15T02:10:20.293Z,100077.19
2023-01-15T02:12:56.854Z,100081.50
2023-01-15T02:15:32.603Z,100078.47
2023-01-15T02:18:08.388Z,100074.44
2023-01-15T02:20:42.300Z,100074.91
2023-01-15T02:23:34.174Z,100075.53
2023-01-15T02:26:43.851Z,100071.44
2023-01-15T02:29:19.527Z,100074.72
2023-01-15T02:31:52.429Z,100072.66
2023-01-15T02:34:25.277Z,100067.09
2023-01-15T02:36:58.445Z,100061.56
2023-01-15T02:39:30.032Z,100063.28
2023-01-15T02:42:03.485Z,100064.09
2023-01-15T02:44:35.692Z,100060.00
2023-01-15T02:47:06.506Z,100068.47
2023-01-15T02:49:35.705Z,100066.66
2023-01-15T02:52:07.874Z,100063.72
2023-01-15T02:54:44.217Z,100062.31
2023-01-15T02:57:15.001Z,100063.34
2023-01-15T02:59:48.464Z,100069.13
2023-01-15T03:02:22.335Z,100062.44
2023-01-15T03:04:57.064Z,100067.38
2023-01-15T03:07:29.390Z,100069.97
2023-01-15T03:09:59.024Z,100067.03
2023-01-15T03:12:32.167Z,100062.16
2023-01-15T03:15:08.659Z,100065.44
2023-01-15T03:17:39.691Z,100060.84
2023-01-15T03:20:13.557Z,100065.72
2023-01-15T03:22:47.536Z,100064.41
2023-01-15T03:25:20.555Z,100065.97
2023-01-15T03:27:48.844Z,100063.97
2023-01-15T03:30:20.946Z,100061.69
2023-01-15T03:32:49.800Z,100064.66
2023-01-15T03:35:47.531Z,100056.06
2023-01-15T03:38:19.011Z,100053.22
2023-01-15T03:40:59.130Z,100048.44
2023-01-15T03:43:43.148Z,100050.09
2023-01-15T03:46:24.874Z,100062.22
2023-01-15T03:49:05.828Z,100059.06
2023-01-15T03:51:41.165Z,100051.84
2023-01-15T03:54:16.219Z,100047.31
2023-01-15T03:56:55.635Z,100061.56
2023-01-15T03:59:27.271Z,100058.56
2023-01-15T04:01:58.999Z,100054.59
2023-01-15T04:04:28.949Z,100060.94
2023-01-15T04:06:58.813Z,100063.88
2023-01-15T04:09:27.485Z,100068.13
2023-01-15T04:11:59.390Z,100066.44
2023-01-15T04:14:30.277Z,100069.13
2023-01-15T04:17:00.001Z,100078.00
2023-01-15T04:19:28.117Z,100069.25
2023-01-15T04:21:56.362Z,100072.56
2023-01-15T04:24:24.766Z,100076.03
2023-01-15T04:26:52.852Z,100072.03
2023-01-15T04:29:21.131Z,100080.16
2023-01-15T04:31:52.764Z,100075.09
2023-01-15T04:34:22.597Z,100077.16
2023-01-15T04:36:50.732Z,100083.94
2023-01-15T04:39:18.943Z,100088.94
2023-01-15T04:42:04.498Z,100084.75
2023-01-15T04:44:34.532Z,100084.88
2023-01-15T04:47:02.824Z,100084.16
2023-01-15T04:49:32.432Z,100094.81
2023-01-15T04:52:00.526Z,100092.63
2023-01-15T04:54:28.769Z,100086.84
2023-01-15T04:56:57.360Z,100093.94
2023-01-15T04:59:27.260Z,100094.72
2023-01-15T05:02:04.721Z,100096.50
2023-01-15T05:04:36.619Z,100097.91
2023-01-15T05:07:06.550Z,100094.13
2023-01-15T05:09:34.959Z,100094.31
2023-01-15T05:12:03.119Z,100091.25
2023-01-15T05:14:31.412Z,100097.09
2023-01-15T05:16:59.603Z,100098.13
2023-01-15T05:19:27.861Z,100103.09
2023-01-15T05:21:57.512Z,100096.94
2023-01-15T05:24:25.567Z,100104.09
2023-01-15T05:26:53.883Z,100095.13
2023-01-15T05:29:22.061Z,100112.06
2023-01-15T05:31:50.273Z,100104.69
2023-01-15T05:34:18.438Z,100113.25
2023-01-15T05:36:46.755Z,100115.63
2023-01-15T05:39:16.583Z,100112.25
2023-01-15T05:41:50.857Z,100113.13
2023-01-15T05:44:22.208Z,100110.16
2023-01-15T05:46:51.186Z,100113.66
2023-01-15T05:49:21.897Z,100117.63
2023-01-15T05:51:50.655Z,100106.88
2023-01-15T05:54:23.048Z,100113.94
2023-01-15T05:56:51.680Z,100114.34
2023-01-15T05:59:21.819Z,100122.31
2023-01-15T06:01:50.308Z,100120.63
2023-01-15T06:04:21.579Z,100123.38
2023-01-15T06:06:50.982Z,100117.53
2023-01-15T06:09:23.082Z,100116.03
2023-01-15T06:11:58.378Z,100116.03
2023-01-15T06:14:27.880Z,100113.66
2023-01-15T06:17:00.637Z,100114.63
2023-01-15T06:19:31.121Z,100110.63
2023-01-15T06:22:01.641Z,100114.63
2023-01-15T06:24:33.965Z,100117.13
2023-01-15T06:27:06.074Z,100121.09
2023-01-15T06:29:34.455Z,100112.75
2023-01-15T06:32:03.311Z,100115.13
2023-01-15T06:34:31.706Z,100117.72
2023-01-15T06:36:59.868Z,100119.00
2023-01-15T06:39:28.643Z,100113.13
2023-01-15T06:42:16.343Z,100127.69
2023-01-15T06:45:03.000Z,100130.44
2023-01-15T06:47:31.539Z,100128.19
2023-01-15T06:50:00.657Z,100128.28
2023-01-15T06:52:31.053Z,100130.97
2023-01-15T06:55:07.815Z,100125.88
2023-01-15T06:57:40.320Z,100136.34
2023-01-15T07:00:10.127Z,100124.19
2023-01-15T07:02:38.703Z,100135.06
2023-01-15T07:05:07.424Z,100129.75
2023-01-15T07:07:36.753Z,100137.94
2023-01-15T07:10:05.297Z,100138.53
2023-01-15T07:12:36.023Z,100139.13
2023-01-15T07:15:06.518Z,100134.34
2023-01-15T07:17:34.832Z,100133.84
2023-01-15T07:20:03.567Z,100136.53
2023-01-15T07:22:31.840Z,100138.03
2023-01-15T07:25:00.225Z,100139.94
2023-01-15T07:27:29.661Z,100141.63
2023-01-15T07:29:58.422Z,100136.44
2023-01-15T07:32:28.531Z,100141.72
2023-01-15T07:34:57.041Z,100141.81
2023-01-15T07:37:26.826Z,100146.09
2023-01-15T07:39:57.618Z,100145.09
2023-01-15T07:42:43.635Z,100144.09
2023-01-15T07:45:29.791Z,100150.50
2023-01-15T07:48:17.450Z,100142.72
2023-01-15T07:50:45.759Z,100143.72
2023-01-15T07:53:14.044Z,100149.09
2023-01-15T07:55:42.248Z,100148.88
2023-01-15T07:58:10.483Z,100153.97
2023-01-15T08:00:42.027Z,100146.25
2023-01-15T08:03:11.760Z,100156.53
2023-01-15T08:05:39.918Z,100152.22
2023-01-15T08:08:15.670Z,100157.91
2023-01-15T08:11:06.948Z,100164.34
2023-01-15T08:13:52.552Z,100169.56
2023-01-15T08:16:20.875Z,100157.63
2023-01-15T08:18:50.540Z,100164.78
2023-01-15T08:21:19.688Z,100161.13
2023-01-15T08:23:47.995Z,100162.59
2023-01-15T08:26:16.391Z,100161.25
2023-01-15T08:28:44.560Z,100155.63
2023-01-15T08:31:12.940Z,100160.00
2023-01-15T08:33:41.319Z,100166.63
2023-01-15T08:36:11.603Z,100163.38
2023-01-15T08:38:39.838Z,100170.22
2023-01-15T08:41:08.046Z,100162.94
2023-01-15T08:43:36.452Z,100155.53
2023-01-15T08:46:06.867Z,100161.66
2023-01-15T08:48:35.700Z,100155.13
2023-01-15T08:51:06.741Z,100154.63
2023-01-15T08:53:36.723Z,100150.16
2023-01-15T08:56:04.862Z,100150.91
2023-01-15T08:58:34.119Z,100152.44
2023-01-15T09:01:06.900Z,100154.09
2023-01-15T09:03:35.869Z,100159.47
2023-01-15T09:06:06.052Z,100159.84
2023-01-15T09:08:35.808Z,100150.19
2023-01-15T09:11:05.938Z,100147.06
2023-01-15T09:13:34.509Z,100148.09
2023-01-15T09:16:03.709Z,100145.19
2023-01-15T09:18:32.632Z,100143.72
2023-01-15T09:21:00.710Z,100146.22
2023-01-15T09:23:29.048Z,100136.38
2023-01-15T09:26:00.111Z,100131.91
2023-01-15T09:28:29.252Z,100139.81
2023-01-15T09:30:57.713Z,100131.22
2023-01-15T09:33:26.340Z,100128.81
2023-01-15T09:35:55.759Z,100125.03
2023-01-15T09:38:23.997Z,100127.34
2023-01-15T09:40:55.766Z,100126.88
2023-01-15T09:43:49.838Z,100120.53
2023-01-15T09:46:23.082Z,100120.69
2023-01-15T09:48:57.484Z,100119.75
2023-01-15T09:51:34.234Z,100115.81
2023-01-15T09:54:29.507Z,100119.16
2023-01-15T09:56:58.597Z,100117.88
2023-01-15T09:59:35.044Z,100118.75
2023-01-15T10:02:13.235Z,100106.78
2023-01-15T10:04:44.749Z,100106.13
2023-01-15T10:07:19.905Z,100102.91
2023-01-15T10:09:53.557Z,100091.38
2023-01-15T10:12:40.181Z,100095.47
2023-01-15T10:15:21.452Z,100088.44
2023-01-15T10:17:53.628Z,100073.31
2023-01-15T10:20:46.105Z,100079.03
2023-01-15T10:23:36.807Z,100071.91
2023-01-15T10:26:18.753Z,100062.38
2023-01-15T10:29:01.624Z,100062.03
2023-01-15T10:31:46.152Z,100050.69
2023-01-15T10:34:39.896Z,100060.19
2023-01-15T10:37:14.182Z,100058.13
2023-01-15T10:39:53.381Z,100047.81
2023-01-15T10:42:40.773Z,100043.75
2023-01-15T10:45:17.487Z,100045.47
2023-01-15T10:47:50.237Z,100036.13
2023-01-15T10:50:21.118Z,100036.94
2023-01-15T10:52:53.262Z,100033.22
2023-01-15T10:55:26.408Z,100032.59
2023-01-15T10:58:09.954Z,100021.31
2023-01-15T11:00:40.256Z,100009.03
2023-01-15T11:03:16.658Z,100020.06
2023-01-15T11:05:46.831Z,100007.72
2023-01-15T11:09:06.525Z,100004.97
2023-01-15T11:11:20.393Z,99994.16
2023-01-15T11:14:15.794Z,99986.56
2023-01-15T11:17:11.256Z,99992.47
2023-01-15T11:19:43.898Z,99984.38
2023-01-15T11:22:14.834Z,99987.50
2023-01-15T11:24:51.977Z,99991.34
2023-01-15T11:27:23.798Z,99984.69
2023-01-15T11:29:57.317Z,99982.16
2023-01-15T11:32:30.704Z,99983.09
2023-01-15T11:35:02.322Z,99970.25
2023-01-15T11:37:31.420Z,99973.59
2023-01-15T11:40:06.386Z,99969.41
2023-01-15T11:42:52.072Z,99969.75
2023-01-15T11:45:39.797Z,99971.97
2023-01-15T11:48:34.879Z,99972.47
2023-01-15T11:51:09.638Z,99970.03
2023-01-15T11:53:42.757Z,99952.44
2023-01-15T11:56:16.919Z,99954.84
2023-01-15T11:58:48.170Z,99959.78
2023-01-15T12:01:23.840Z,99952.31
2023-01-15T12:03:52.383Z,99954.88
2023-01-15T12:06:23.578Z,99951.25
2023-01-15T12:08:56.120Z,99942.69
2023-01-15T12:11:52.648Z,99929.69
2023-01-15T12:14:51.897Z,99938.25
2023-01-15T12:17:37.420Z,99941.75
2023-01-15T12:20:18.564Z,99930.31
2023-01-15T12:23:08.890Z,99928.56
2023-01-15T12:25:49.435Z,99921.91
2023-01-15T12:28:24.622Z,99916.50
2023-01-15T12:31:03.381Z,99918.22
2023-01-15T12:33:42.222Z,99914.94
2023-01-15T12:36:18.287Z,99904.16
2023-01-15T12:38:52.342Z,99908.44
2023-01-15T12:41:47.396Z,99898.78
2023-01-15T12:44:38.460Z,99909.56
2023-01-15T12:47:13.582Z,99898.13
2023-01-15T12:49:48.012Z,99910.34
2023-01-15T12:52:24.645Z,99896.88
2023-01-15T12:55:02.187Z,99899.72
2023-01-15T12:57:37.491Z,99899.06
2023-01-15T13:00:13.720Z,99895.25
2023-01-15T13:02:55.654Z,99895.56
2023-01-15T13:05:30.920Z,99895.53
2023-01-15T13:08:05.430Z,99895.56
2023-01-15T13:10:36.699Z,99896.03
2023-01-15T13:13:20.401Z,99898.44
2023-01-15T13:16:11.988Z,99887.50
2023-01-15T13:18:54.409Z,99895.75
2023-01-15T13:21:25.809Z,99894.66
2023-01-15T13:24:17.675Z,99889.88
2023-01-15T13:27:21.954Z,99895.75
2023-01-15T13:30:03.932Z,99887.81
2023-01-15T13:32:37.759Z,99884.19
2023-01-15T13:35:10.622Z,99882.41
2023-01-15T13:37:45.696Z,99891.00
2023-01-15T13:40:22.564Z,99887.66
2023-01-15T13:42:53.714Z,99887.94
2023-01-15T13:45:37.134Z,99889.84
2023-01-15T13:48:09.991Z,99887.78
2023-01-15T13:50:42.542Z,99889.34
2023-01-15T13:53:23.276Z,99881.94
2023-01-15T13:55:55.598Z,99873.56
2023-01-15T13:58:29.221Z,99869.28
2023-01-15T14:01:10.119Z,99874.16
2023-01-15T14:03:39.518Z,99870.19
2023-01-15T14:06:12.141Z,99868.31
2023-01-15T14:08:42.458Z,99869.56
2023-01-15T14:11:39.832Z,99868.31
2023-01-15T14:14:34.625Z,99860.22
2023-01-15T14:17:19.753Z,99856.41
2023-01-15T14:20:12.472Z,99857.69
2023-01-15T14:22:59.277Z,99867.03
2023-01-15T14:25:47.441Z,99865.88
2023-01-15T14:28:40.883Z,99862.13
2023-01-15T14:31:39.249Z,99859.44
2023-01-15T14:34:20.315Z,99857.03
2023-01-15T14:36:57.712Z,99864.16
2023-01-15T14:39:35.450Z,99859.28
2023-01-15T14:42:26.332Z,99855.94
2023-01-15T14:45:05.344Z,99856.38
2023-01-15T14:47:39.383Z,99863.81
2023-01-15T14:50:39.674Z,99865.75
2023-01-15T14:53:29.685Z,99864.31
2023-01-15T14:56:02.975Z,99869.06
2023-01-15T14:58:48.951Z,99867.78
2023-01-15T15:01:32.595Z,99864.94
2023-01-15T15:04:09.156Z,99865.72
2023-01-15T15:06:46.085Z,99865.22
2023-01-15T15:09:15.771Z,99860.66
2023-01-15T15:12:06.555Z,99875.69
2023-01-15T15:14:39.895Z,99873.47
2023-01-15T15:17:21.074Z,99866.34
2023-01-15T15:20:00.103Z,99877.50
2023-01-15T15:22:33.086Z,99880.09
2023-01-15T15:25:07.735Z,99868.94
2023-01-15T15:27:36.126Z,99871.53
2023-01-15T15:30:06.865Z,99873.81
2023-01-15T15:32:40.388Z,99882.16
2023-01-15T15:35:27.950Z,99874.34
2023-01-15T15:37:57.352Z,99862.63
2023-01-15T15:40:33.519Z,99860.41
2023-01-15T15:43:26.047Z,99872.72
2023-01-15T15:46:13.532Z,99875.91
2023-01-15T15:48:45.997Z,99877.47
2023-01-15T15:51:31.156Z,99870.00
2023-01-15T15:54:07.083Z,99879.84
2023-01-15T15:56:36.196Z,99879.66
2023-01-15T15:59:05.592Z,99882.41
2023-01-15T16:01:40.035Z,99887.06
2023-01-15T16:04:08.496Z,99886.38
2023-01-15T16:06:38.269Z,99881.16
2023-01-15T16:09:11.474Z,99895.38
2023-01-15T16:11:42.531Z,99893.97
2023-01-15T16:14:16.156Z,99901.59
2023-01-15T16:16:46.994Z,99899.97
2023-01-15T16:19:20.758Z,99899.91
2023-01-15T16:21:51.269Z,99904.91
2023-01-15T16:24:36.952Z,99911.13
2023-01-15T16:27:09.424Z,99909.34
2023-01-15T16:29:37.811Z,99910.97
2023-01-15T16:32:13.115Z,99914.41
2023-01-15T16:34:41.827Z,99907.28
2023-01-15T16:37:26.304Z,99911.09
2023-01-15T16:39:54.612Z,99915.47
2023-01-15T16:42:28.383Z,99917.78
2023-01-15T16:45:01.284Z,99919.38
2023-01-15T16:47:32.807Z,99927.38
2023-01-15T16:50:29.543Z,99931.13
2023-01-15T16:53:01.963Z,99922.00
2023-01-15T16:55:44.466Z,99916.28
2023-01-15T16:58:20.896Z,99912.66
2023-01-15T17:00:51.217Z,99918.66
2023-01-15T17:03:22.794Z,99913.72
2023-01-15T17:05:54.573Z,99909.28
2023-01-15T17:08:28.735Z,99905.78
2023-01-15T17:10:59.635Z,99912.31
2023-01-15T17:13:36.567Z,99911.75
2023-01-15T17:16:08.308Z,99898.25
2023-01-15T17:18:37.117Z,99898.22
2023-01-15T17:21:06.428Z,99902.16
2023-01-15T17:23:38.636Z,99897.53
2023-01-15T17:26:08.723Z,99904.47
2023-01-15T17:28:36.983Z,99903.19
2023-01-15T17:31:05.322Z,99899.22
2023-01-15T17:33:33.615Z,99901.44
2023-01-15T17:36:01.870Z,99902.84
2023-01-15T17:38:30.653Z,99902.34
2023-01-15T17:41:07.115Z,99904.06
2023-01-15T17:43:35.469Z,99900.41
2023-01-15T17:46:04.405Z,99899.78
2023-01-15T17:48:34.480Z,99898.34
2023-01-15T17:51:03.218Z,99901.06
2023-01-15T17:53:32.569Z,99893.25
2023-01-15T17:56:19.623Z,99895.28
2023-01-15T17:59:05.126Z,99892.75
2023-01-15T18:01:55.601Z,99899.63
2023-01-15T18:04:44.555Z,99896.69
2023-01-15T18:07:14.623Z,99891.00
2023-01-15T18:09:44.304Z,99893.38
2023-01-15T18:12:13.981Z,99884.47
2023-01-15T18:14:42.098Z,99893.16
2023-01-15T18:17:11.587Z,99894.84
2023-01-15T18:19:39.778Z,99896.47
2023-01-15T18:22:08.187Z,99886.78
2023-01-15T18:24:36.855Z,99883.75
2023-01-15T18:27:05.283Z,99886.38
2023-01-15T18:29:38.946Z,99876.63
2023-01-15T18:32:07.327Z,99888.31
2023-01-15T18:34:35.553Z,99879.69
2023-01-15T18:37:03.922Z,99871.72
2023-01-15T18:39:32.258Z,99878.72
2023-01-15T18:42:17.782Z,99878.09
2023-01-15T18:45:04.966Z,99882.94
2023-01-15T18:47:33.340Z,99878.84
2023-01-15T18:50:05.817Z,99885.78
2023-01-15T18:52:52.199Z,99875.53
2023-01-15T18:55:23.475Z,99876.31
2023-01-15T18:57:52.380Z,99879.00
2023-01-15T19:00:24.167Z,99878.84
2023-01-15T19:02:53.564Z,99870.78
2023-01-15T19:05:21.920Z,99865.81
2023-01-15T19:07:50.409Z,99868.22
2023-01-15T19:10:19.530Z,99860.31
2023-01-15T19:12:47.773Z,99854.66
2023-01-15T19:15:35.196Z,99852.47
2023-01-15T19:18:23.222Z,99857.31
2023-01-15T19:20:51.840Z,99863.34
2023-01-15T19:23:22.811Z,99849.25
2023-01-15T19:25:51.431Z,99843.69
2023-01-15T19:28:22.251Z,99838.31
2023-01-15T19:31:12.956Z,99834.31
2023-01-15T19:33:42.463Z,99830.81
2023-01-15T19:36:11.381Z,99842.72
2023-01-15T19:38:40.472Z,99844.59
2023-01-15T19:41:30.357Z,99834.88
2023-01-15T19:44:16.536Z,99832.09
2023-01-15T19:47:02.564Z,99827.25
2023-01-15T19:49:51.465Z,99827.88
2023-01-15T19:52:38.733Z,99828.97
2023-01-15T19:55:10.853Z,99834.53
2023-01-15T19:57:39.120Z,99829.34
2023-01-15T20:00:08.669Z,99833.13
2023-01-15T20:02:37.359Z,99834.34
2023-01-15T20:05:08.428Z,99831.44
2023-01-15T20:07:38.084Z,99827.94
2023-01-15T20:10:09.325Z,99820.00
2023-01-15T20:12:55.058Z,99824.38
2023-01-15T20:15:23.312Z,99816.09
2023-01-15T20:17:51.396Z,99810.78
2023-01-15T20:20:21.079Z,99805.25
2023-01-15T20:22:49.168Z,99812.47
2023-01-15T20:25:17.620Z,99814.16
2023-01-15T20:27:45.990Z,99814.69
2023-01-15T20:30:16.259Z,99818.75
2023-01-15T20:32:46.109Z,99814.38
2023-01-15T20:35:16.952Z,99804.28
2023-01-15T20:37:49.892Z,99804.84
2023-01-15T20:40:20.328Z,99803.38
2023-01-15T20:43:06.005Z,99798.81
2023-01-15T20:45:34.372Z,99805.34
2023-01-15T20:48:22.288Z,99806.31
2023-01-15T20:51:01.588Z,99804.28
2023-01-15T20:53:34.766Z,99808.75
2023-01-15T20:56:03.629Z,99801.75
2023-01-15T20:58:33.309Z,99789.34
2023-01-15T21:01:09.339Z,99789.97
2023-01-15T21:03:38.536Z,99779.88
2023-01-15T21:06:08.027Z,99785.53
2023-01-15T21:08:37.816Z,99785.41
2023-01-15T21:11:06.444Z,99786.34
2023-01-15T21:13:34.565Z,99785.78
2023-01-15T21:16:06.273Z,99788.19
2023-01-15T21:18:37.390Z,99778.22
2023-01-15T21:21:09.698Z,99778.38
2023-01-15T21:23:40.245Z,99776.72
2023-01-15T21:26:08.807Z,99767.97
2023-01-15T21:28:37.081Z,99774.03
2023-01-15T21:31:08.545Z,99774.19
2023-01-15T21:33:37.944Z,99775.91
2023-01-15T21:36:11.234Z,99765.81
2023-01-15T21:38:41.149Z,99769.56
2023-01-15T21:41:10.431Z,99762.50
2023-01-15T21:43:56.730Z,99760.03
2023-01-15T21:46:27.738Z,99761.25
2023-01-15T21:48:56.859Z,99756.38
2023-01-15T21:51:25.896Z,99756.00
2023-01-15T21:53:55.433Z,99757.34
2023-01-15T21:56:23.620Z,99746.97
2023-01-15T21:58:51.926Z,99740.22
2023-01-15T22:01:21.045Z,99739.41
2023-01-15T22:03:49.460Z,99741.59
2023-01-15T22:06:18.074Z,99738.41
2023-01-15T22:08:46.191Z,99738.13
2023-01-15T22:11:16.738Z,99736.06
2023-01-15T22:13:44.848Z,99740.44
2023-01-15T22:16:12.955Z,99738.63
2023-01-15T22:18:41.806Z,99737.22
2023-01-15T22:21:15.516Z,99741.56
2023-01-15T22:23:44.632Z,99740.50
2023-01-15T22:26:19.520Z,99735.09
2023-01-15T22:28:48.707Z,99732.91
2023-01-15T22:31:17.970Z,99729.53
2023-01-15T22:33:46.824Z,99731.06
2023-01-15T22:36:15.626Z,99730.88
2023-01-15T22:38:44.206Z,99733.47
2023-01-15T22:41:13.038Z,99731.97
2023-01-15T22:43:44.690Z,99735.75
2023-01-15T22:46:14.789Z,99731.97
2023-01-15T22:48:43.025Z,99734.31
2023-01-15T22:51:13.139Z,99725.06
2023-01-15T22:53:41.508Z,99727.34
2023-01-15T22:56:09.615Z,99730.34
2023-01-15T22:58:42.490Z,99724.78
2023-01-15T23:01:12.574Z,99720.03
2023-01-15T23:03:41.324Z,99720.63
2023-01-15T23:06:11.321Z,99714.00
2023-01-15T23:08:40.089Z,99711.66
2023-01-15T23:11:11.245Z,99711.78
2023-01-15T23:13:39.705Z,99708.31
2023-01-15T23:16:08.178Z,99701.81
2023-01-15T23:18:38.056Z,99703.91
2023-01-15T23:21:07.196Z,99700.63
2023-01-15T23:23:38.914Z,99699.13
2023-01-15T23:26:13.013Z,99690.63
2023-01-15T23:28:41.804Z,99691.84
2023-01-15T23:31:10.834Z,99683.53
2023-01-15T23:33:40.530Z,99679.09
2023-01-15T23:36:09.896Z,99670.38
2023-01-15T23:38:38.105Z,99674.25
2023-01-15T23:41:09.926Z,99668.13
2023-01-15T23:43:56.835Z,99664.31
2023-01-15T23:46:35.377Z,99660.97
2023-01-15T23:49:08.766Z,99654.38
2023-01-15T23:51:37.872Z,99656.91
2023-01-15T23:54:08.762Z,99642.59
2023-01-15T23:56:36.970Z,99644.59
2023-01-15T23:59:05.244Z,99636.94
